createdAt,value
2019-05-06T00:00:15.481Z,100816.94
2019-05-06T00:02:44.346Z,100811.23
2019-05-06T00:05:14.415Z,100820.94
2019-05-06T00:07:46.542Z,100816.58
2019-05-06T00:10:26.661Z,100816.25
2019-05-06T00:12:56.320Z,100816.25
2019-05-06T00:15:25.492Z,100814.27
2019-05-06T00:17:54.559Z,100809.90
2019-05-06T00:20:24.404Z,100809.17
2019-05-06T00:22:56.745Z,100811.59
2019-05-06T00:25:34.881Z,100814.09
2019-05-06T00:28:35.215Z,100814.09
2019-05-06T00:31:12.675Z,100818.12
2019-05-06T00:33:37.134Z,100816.94
2019-05-06T00:36:06.105Z,100821.81
2019-05-06T00:38:35.801Z,100827.33
2019-05-06T00:41:06.826Z,100822.17
2019-05-06T00:43:35.745Z,100823.36
2019-05-06T00:46:05.087Z,100818.34
2019-05-06T00:48:34.269Z,100820.36
2019-05-06T00:51:04.495Z,100822.67
2019-05-06T00:53:35.524Z,100814.87
2019-05-06T00:56:04.676Z,100821.73
2019-05-06T00:58:34.803Z,100827.74
2019-05-06T01:01:04.777Z,100824.75
2019-05-06T01:03:34.706Z,100821.06
2019-05-06T01:06:04.077Z,100825.41
2019-05-06T01:08:34.908Z,100826.75
2019-05-06T01:11:06.188Z,100824.25
2019-05-06T01:13:40.786Z,100819.93
2019-05-06T01:16:11.297Z,100820.75
2019-05-06T01:18:40.187Z,100820.78
2019-05-06T01:21:14.324Z,100825.76
2019-05-06T01:23:44.172Z,100829.77
2019-05-06T01:26:16.117Z,100825.93
2019-05-06T01:28:49.089Z,100821.08
2019-05-06T01:31:20.805Z,100819.75
2019-05-06T01:33:53.524Z,100825.42
2019-05-06T01:36:24.693Z,100824.94
2019-05-06T01:39:07.062Z,100824.59
2019-05-06T01:41:57.196Z,100822.11
2019-05-06T01:44:26.196Z,100826.12
2019-05-06T01:46:55.078Z,100813.41
2019-05-06T01:49:24.520Z,100826.10
2019-05-06T01:51:54.591Z,100825.74
2019-05-06T01:54:26.417Z,100827.77
2019-05-06T01:56:58.652Z,100824.77
2019-05-06T01:59:31.187Z,100829.08
2019-05-06T02:02:04.338Z,100835.73
2019-05-06T02:04:36.104Z,100825.58
2019-05-06T02:07:05.059Z,100831.38
2019-05-06T02:09:34.438Z,100839.00
2019-05-06T02:12:04.701Z,100837.68
2019-05-06T02:14:34.273Z,100842.99
2019-05-06T02:17:03.760Z,100841.28
2019-05-06T02:19:34.757Z,100841.44
2019-05-06T02:22:13.627Z,100844.59
2019-05-06T02:24:49.470Z,100844.74
2019-05-06T02:27:18.690Z,100846.91
2019-05-06T02:29:54.329Z,100845.55
2019-05-06T02:32:45.246Z,100850.37
2019-05-06T02:35:19.222Z,100851.61
2019-05-06T02:37:48.204Z,100852.45
2019-05-06T02:40:24.627Z,100849.42
2019-05-06T02:42:54.808Z,100856.41
2019-05-06T02:45:24.446Z,100851.34
2019-05-06T02:48:17.787Z,100855.50
2019-05-06T02:51:05.534Z,100851.96
2019-05-06T02:53:34.371Z,100850.63
2019-05-06T02:56:04.379Z,100856.63
2019-05-06T02:58:33.650Z,100853.59
2019-05-06T03:01:03.693Z,100846.56
2019-05-06T03:03:34.233Z,100857.03
2019-05-06T03:06:03.955Z,100853.87
2019-05-06T03:08:33.536Z,100863.94
2019-05-06T03:11:04.033Z,100853.30
2019-05-06T03:13:34.393Z,100856.63
2019-05-06T03:16:05.928Z,100854.30
2019-05-06T03:18:34.080Z,100854.25
2019-05-06T03:21:28.263Z,100851.63
2019-05-06T03:24:03.954Z,100850.47
2019-05-06T03:26:33.782Z,100848.27
2019-05-06T03:29:03.087Z,100851.25
2019-05-06T03:31:36.375Z,100851.96
2019-05-06T03:34:28.378Z,100855.25
2019-05-06T03:36:40.355Z,100862.53
2019-05-06T03:39:05.896Z,100857.20
2019-05-06T03:41:34.999Z,100859.16
2019-05-06T03:44:04.161Z,100862.23
2019-05-06T03:46:53.934Z,100849.89
2019-05-06T03:49:23.793Z,100854.41
2019-05-06T03:51:55.941Z,100853.00
2019-05-06T03:54:24.855Z,100851.12
2019-05-06T03:56:54.848Z,100858.77
2019-05-06T03:59:25.581Z,100861.48
2019-05-06T04:01:54.349Z,100864.19
2019-05-06T04:04:23.456Z,100865.19
2019-05-06T04:06:53.737Z,100867.84
2019-05-06T04:09:24.060Z,100873.88
2019-05-06T04:11:54.252Z,100866.84
2019-05-06T04:14:23.974Z,100868.84
2019-05-06T04:16:58.704Z,100875.84
2019-05-06T04:19:33.313Z,100873.45
2019-05-06T04:22:13.665Z,100879.74
2019-05-06T04:24:55.874Z,100876.95
2019-05-06T04:27:38.983Z,100881.63
2019-05-06T04:30:08.073Z,100883.28
2019-05-06T04:32:37.053Z,100880.91
2019-05-06T04:35:06.417Z,100880.61
2019-05-06T04:37:35.504Z,100884.70
2019-05-06T04:40:04.798Z,100894.97
2019-05-06T04:42:34.613Z,100895.41
2019-05-06T04:45:04.993Z,100895.34
2019-05-06T04:47:34.045Z,100896.06
2019-05-06T04:50:05.004Z,100900.23
2019-05-06T04:52:34.436Z,100905.39
2019-05-06T04:55:04.058Z,100905.27
2019-05-06T04:57:33.703Z,100904.19
2019-05-06T05:00:04.328Z,100897.87
2019-05-06T05:02:33.944Z,100903.91
2019-05-06T05:05:04.402Z,100904.98
2019-05-06T05:07:33.694Z,100910.59
2019-05-06T05:10:12.631Z,100910.14
2019-05-06T05:12:52.565Z,100915.40
2019-05-06T05:15:49.655Z,100918.69
2019-05-06T05:18:23.112Z,100924.88
2019-05-06T05:20:52.875Z,100917.12
2019-05-06T05:23:22.887Z,100917.12
2019-05-06T05:25:52.223Z,100925.17
2019-05-06T05:28:22.306Z,100934.21
2019-05-06T05:30:52.183Z,100937.57
2019-05-06T05:33:22.492Z,100943.17
2019-05-06T05:35:52.565Z,100937.47
2019-05-06T05:38:22.719Z,100939.84
2019-05-06T05:40:52.794Z,100949.33
2019-05-06T05:43:32.525Z,100946.66
2019-05-06T05:46:02.926Z,100946.92
2019-05-06T05:48:59.450Z,100933.95
2019-05-06T05:51:28.611Z,100947.17
2019-05-06T05:53:57.610Z,100951.48
2019-05-06T05:56:26.667Z,100964.44
2019-05-06T05:58:55.766Z,100958.86
2019-05-06T06:01:25.963Z,100959.09
2019-05-06T06:03:55.234Z,100957.28
2019-05-06T06:06:24.310Z,100957.49
2019-05-06T06:08:53.323Z,100965.67
2019-05-06T06:11:29.745Z,100968.17
2019-05-06T06:14:02.995Z,100966.52
2019-05-06T06:16:58.158Z,100965.70
2019-05-06T06:19:36.725Z,100962.52
2019-05-06T06:22:08.548Z,100962.85
2019-05-06T06:24:37.729Z,100967.50
2019-05-06T06:27:06.742Z,100962.61
2019-05-06T06:29:35.715Z,100963.45
2019-05-06T06:32:32.710Z,100965.20
2019-05-06T06:35:36.211Z,100960.96
2019-05-06T06:38:12.313Z,100960.96
2019-05-06T06:40:42.541Z,100964.28
2019-05-06T06:43:16.577Z,100964.98
2019-05-06T06:45:45.544Z,100959.30
2019-05-06T06:48:14.540Z,100957.06
2019-05-06T06:50:43.612Z,100955.01
2019-05-06T06:53:12.609Z,100954.01
2019-05-06T06:55:42.779Z,100958.41
2019-05-06T06:58:24.228Z,100957.01
2019-05-06T07:01:12.348Z,100966.51
2019-05-06T07:03:46.156Z,100959.08
2019-05-06T07:06:33.695Z,100965.18
2019-05-06T07:09:03.742Z,100966.66
2019-05-06T07:11:33.125Z,100968.89
2019-05-06T07:14:02.701Z,100967.53
2019-05-06T07:16:32.786Z,100971.34
2019-05-06T07:19:03.082Z,100970.89
2019-05-06T07:21:46.549Z,100971.72
2019-05-06T07:24:15.654Z,100968.77
2019-05-06T07:26:49.073Z,100969.47
2019-05-06T07:29:23.429Z,100961.31
2019-05-06T07:31:48.936Z,100965.36
2019-05-06T07:34:17.996Z,100959.48
2019-05-06T07:36:46.926Z,100962.59
2019-05-06T07:39:16.243Z,100968.51
2019-05-06T07:41:53.510Z,100967.12
2019-05-06T07:44:42.351Z,100960.32
2019-05-06T07:47:39.573Z,100966.78
2019-05-06T07:50:09.792Z,100964.84
2019-05-06T07:52:38.864Z,100964.84
2019-05-06T07:55:07.990Z,100960.31
2019-05-06T07:57:36.992Z,100960.02
2019-05-06T08:00:07.385Z,100961.31
2019-05-06T08:02:36.213Z,100964.74
2019-05-06T08:05:07.647Z,100959.52
2019-05-06T08:07:36.692Z,100965.64
2019-05-06T08:10:06.472Z,100960.05
2019-05-06T08:12:35.513Z,100962.31
2019-05-06T08:15:06.060Z,100968.42
2019-05-06T08:17:39.233Z,100967.49
2019-05-06T08:20:09.679Z,100962.91
2019-05-06T08:22:56.752Z,100964.20
2019-05-06T08:25:25.904Z,100966.44
2019-05-06T08:27:54.883Z,100968.34
2019-05-06T08:30:23.922Z,100964.62
2019-05-06T08:32:53.043Z,100971.52
2019-05-06T08:35:22.763Z,100968.38
2019-05-06T08:37:53.097Z,100967.74
2019-05-06T08:40:23.683Z,100967.23
2019-05-06T08:42:53.296Z,100961.28
2019-05-06T08:45:22.286Z,100959.97
2019-05-06T08:47:52.377Z,100955.74
2019-05-06T08:50:49.580Z,100959.59
2019-05-06T08:53:32.941Z,100950.12
2019-05-06T08:56:02.543Z,100960.65
2019-05-06T08:58:47.813Z,100961.55
2019-05-06T09:01:29.609Z,100955.36
2019-05-06T09:04:08.831Z,100951.95
2019-05-06T09:06:31.578Z,100968.25
2019-05-06T09:09:02.186Z,100959.85
2019-05-06T09:11:32.213Z,100959.92
2019-05-06T09:14:03.387Z,100959.34
2019-05-06T09:16:33.114Z,100954.24
2019-05-06T09:19:04.432Z,100952.84
2019-05-06T09:21:33.551Z,100947.69
2019-05-06T09:24:02.938Z,100943.52
2019-05-06T09:26:45.876Z,100943.06
2019-05-06T09:29:19.514Z,100943.01
2019-05-06T09:31:52.225Z,100947.21
2019-05-06T09:34:33.753Z,100948.25
2019-05-06T09:37:15.516Z,100948.25
2019-05-06T09:39:50.096Z,100945.36
2019-05-06T09:42:19.090Z,100953.33
2019-05-06T09:44:50.635Z,100950.39
2019-05-06T09:47:29.433Z,100955.36
2019-05-06T09:49:58.459Z,100953.23
2019-05-06T09:52:27.353Z,100957.05
2019-05-06T09:55:12.974Z,100957.81
2019-05-06T09:58:16.365Z,100945.95
2019-05-06T10:00:48.368Z,100947.22
2019-05-06T10:03:17.438Z,100946.41
2019-05-06T10:05:46.454Z,100936.34
2019-05-06T10:08:15.461Z,100929.38
2019-05-06T10:10:56.114Z,100929.66
2019-05-06T10:13:15.639Z,100925.91
2019-05-06T10:15:46.875Z,100926.90
2019-05-06T10:18:16.022Z,100919.00
2019-05-06T10:20:46.931Z,100919.53
2019-05-06T10:23:16.027Z,100917.56
2019-05-06T10:25:45.274Z,100917.42
2019-05-06T10:28:46.199Z,100918.77
2019-05-06T10:31:16.941Z,100918.73
2019-05-06T10:34:03.642Z,100916.96
2019-05-06T10:36:42.739Z,100907.45
2019-05-06T10:39:13.920Z,100908.37
2019-05-06T10:41:46.366Z,100916.20
2019-05-06T10:44:34.088Z,100913.92
2019-05-06T10:47:03.099Z,100899.09
2019-05-06T10:49:33.714Z,100891.42
2019-05-06T10:52:10.197Z,100883.42
2019-05-06T10:54:39.048Z,100889.34
2019-05-06T10:57:32.931Z,100856.48
2019-05-06T11:00:01.785Z,100903.00
2019-05-06T11:02:48.988Z,100899.44
2019-05-06T11:05:18.278Z,100913.52
2019-05-06T11:07:47.148Z,100897.73
2019-05-06T11:10:23.939Z,100884.98
2019-05-06T11:12:47.076Z,100892.62
2019-05-06T11:15:16.219Z,100887.66
2019-05-06T11:17:45.026Z,100886.91
2019-05-06T11:20:14.235Z,100884.85
2019-05-06T11:22:43.689Z,100880.00
2019-05-06T11:25:13.044Z,100871.38
2019-05-06T11:27:45.098Z,100870.18
2019-05-06T11:30:29.006Z,100867.33
2019-05-06T11:33:04.815Z,100868.64
2019-05-06T11:36:08.310Z,100864.18
2019-05-06T11:38:37.178Z,100871.98
2019-05-06T11:41:06.273Z,100867.45
2019-05-06T11:43:35.287Z,100865.39
2019-05-06T11:46:04.301Z,100855.33
2019-05-06T11:48:33.088Z,100852.77
2019-05-06T11:51:03.773Z,100852.27
2019-05-06T11:53:32.762Z,100848.66
2019-05-06T11:56:02.222Z,100848.47
2019-05-06T11:58:48.025Z,100849.89
2019-05-06T12:01:20.977Z,100848.02
2019-05-06T12:03:52.040Z,100851.24
2019-05-06T12:06:22.609Z,100852.27
2019-05-06T12:08:52.461Z,100849.56
2019-05-06T12:11:23.751Z,100858.66
2019-05-06T12:13:53.215Z,100854.69
2019-05-06T12:16:26.039Z,100856.53
2019-05-06T12:18:53.152Z,100851.59
2019-05-06T12:21:23.200Z,100847.23
2019-05-06T12:23:54.051Z,100856.98
2019-05-06T12:26:22.981Z,100840.76
2019-05-06T12:28:53.178Z,100840.76
2019-05-06T12:31:23.347Z,100843.12
2019-05-06T12:33:53.313Z,100852.15
2019-05-06T12:36:23.686Z,100840.95
2019-05-06T12:39:15.715Z,100848.84
2019-05-06T12:41:53.263Z,100855.00
2019-05-06T12:44:23.054Z,100855.00
2019-05-06T12:47:03.395Z,100846.80
2019-05-06T12:49:32.760Z,100848.66
2019-05-06T12:52:01.734Z,100853.53
2019-05-06T12:54:33.260Z,100841.31
2019-05-06T12:57:03.260Z,100849.94
2019-05-06T12:59:32.574Z,100848.31
2019-05-06T13:02:02.746Z,100854.63
2019-05-06T13:04:49.629Z,100843.10
2019-05-06T13:07:03.143Z,100841.13
2019-05-06T13:09:33.194Z,100848.09
2019-05-06T13:12:03.792Z,100845.23
2019-05-06T13:14:33.281Z,100846.91
2019-05-06T13:17:02.855Z,100848.36
2019-05-06T13:19:32.344Z,100845.76
2019-05-06T13:22:03.743Z,100846.28
2019-05-06T13:24:32.569Z,100845.52
2019-05-06T13:27:02.575Z,100847.88
2019-05-06T13:29:35.661Z,100845.41
2019-05-06T13:32:04.138Z,100844.96
2019-05-06T13:34:33.503Z,100847.65
2019-05-06T13:37:02.641Z,100837.52
2019-05-06T13:39:32.816Z,100841.45
2019-05-06T13:42:02.012Z,100846.70
2019-05-06T13:44:32.031Z,100846.38
2019-05-06T13:47:02.962Z,100841.70
2019-05-06T13:49:47.457Z,100849.23
2019-05-06T13:52:19.172Z,100849.32
2019-05-06T13:54:48.071Z,100853.06
2019-05-06T13:57:17.020Z,100843.75
2019-05-06T13:59:45.917Z,100843.22
2019-05-06T14:02:34.277Z,100844.26
2019-05-06T14:05:03.257Z,100839.04
2019-05-06T14:07:34.458Z,100841.75
2019-05-06T14:10:02.976Z,100848.39
2019-05-06T14:12:33.138Z,100847.80
2019-05-06T14:15:04.330Z,100841.62
2019-05-06T14:17:33.002Z,100843.33
2019-05-06T14:20:02.626Z,100844.92
2019-05-06T14:22:32.614Z,100836.63
2019-05-06T14:25:36.224Z,100839.02
2019-05-06T14:28:12.427Z,100843.55
2019-05-06T14:31:15.510Z,100837.37
2019-05-06T14:33:44.503Z,100841.34
2019-05-06T14:36:13.380Z,100846.53
2019-05-06T14:38:43.072Z,100842.19
2019-05-06T14:41:18.425Z,100844.80
2019-05-06T14:43:47.419Z,100839.86
2019-05-06T14:46:16.511Z,100843.56
2019-05-06T14:48:45.583Z,100839.05
2019-05-06T14:51:14.926Z,100840.92
2019-05-06T14:53:44.034Z,100841.70
2019-05-06T14:56:27.789Z,100843.48
2019-05-06T14:59:06.702Z,100854.45
2019-05-06T15:01:37.716Z,100852.06
2019-05-06T15:04:06.755Z,100854.45
2019-05-06T15:06:35.902Z,100848.70
2019-05-06T15:09:07.517Z,100852.08
2019-05-06T15:11:36.499Z,100850.73
2019-05-06T15:14:05.891Z,100848.74
2019-05-06T15:16:34.678Z,100842.29
2019-05-06T15:19:04.992Z,100843.14
2019-05-06T15:21:38.557Z,100845.48
2019-05-06T15:24:05.313Z,100843.92
2019-05-06T15:26:34.268Z,100833.17
2019-05-06T15:29:03.578Z,100833.25
2019-05-06T15:31:54.174Z,100834.18
2019-05-06T15:34:29.956Z,100834.97
2019-05-06T15:37:13.039Z,100843.27
2019-05-06T15:39:43.781Z,100848.59
2019-05-06T15:42:13.069Z,100852.05
2019-05-06T15:44:42.649Z,100842.39
2019-05-06T15:47:13.211Z,100845.08
2019-05-06T15:49:42.328Z,100838.94
2019-05-06T15:52:12.512Z,100852.66
2019-05-06T15:54:43.029Z,100849.53
2019-05-06T15:57:12.154Z,100853.25
2019-05-06T15:59:44.408Z,100853.80
2019-05-06T16:02:12.173Z,100852.66
2019-05-06T16:04:42.963Z,100841.88
2019-05-06T16:07:12.655Z,100850.48
2019-05-06T16:09:42.834Z,100844.75
2019-05-06T16:12:12.766Z,100858.44
2019-05-06T16:14:42.503Z,100849.83
2019-05-06T16:17:12.375Z,100850.67
2019-05-06T16:19:42.724Z,100858.62
2019-05-06T16:22:11.868Z,100850.84
2019-05-06T16:24:45.768Z,100855.72
2019-05-06T16:27:14.547Z,100851.28
2019-05-06T16:29:43.541Z,100855.72
2019-05-06T16:32:12.448Z,100851.25
2019-05-06T16:34:43.061Z,100852.30
2019-05-06T16:37:12.681Z,100849.22
2019-05-06T16:39:41.715Z,100844.95
2019-05-06T16:42:12.984Z,100838.46
2019-05-06T16:44:45.168Z,100836.86
2019-05-06T16:47:15.703Z,100839.09
2019-05-06T16:49:44.647Z,100832.66
2019-05-06T16:52:13.562Z,100841.27
2019-05-06T16:54:42.636Z,100842.37
2019-05-06T16:57:20.405Z,100834.80
2019-05-06T16:59:49.300Z,100842.52
2019-05-06T17:02:26.686Z,100841.13
2019-05-06T17:05:15.064Z,100836.76
2019-05-06T17:07:45.129Z,100841.03
2019-05-06T17:10:14.738Z,100842.24
2019-05-06T17:12:43.682Z,100847.37
2019-05-06T17:15:12.654Z,100842.89
2019-05-06T17:17:46.677Z,100840.98
2019-05-06T17:20:12.615Z,100848.48
2019-05-06T17:22:42.351Z,100821.97
2019-05-06T17:25:11.680Z,100850.52
2019-05-06T17:27:43.403Z,100849.12
2019-05-06T17:30:33.587Z,100855.18
2019-05-06T17:33:22.430Z,100852.68
2019-05-06T17:35:52.159Z,100859.77
2019-05-06T17:38:25.508Z,100862.50
2019-05-06T17:40:54.710Z,100858.52
2019-05-06T17:43:23.652Z,100865.82
2019-05-06T17:46:02.586Z,100854.97
2019-05-06T17:48:42.239Z,100858.00
2019-05-06T17:51:23.509Z,100853.00
2019-05-06T17:53:53.667Z,100852.94
2019-05-06T17:56:22.613Z,100853.57
2019-05-06T17:58:53.235Z,100856.45
2019-05-06T18:01:27.422Z,100850.88
2019-05-06T18:03:56.394Z,100850.21
2019-05-06T18:06:25.393Z,100846.13
2019-05-06T18:08:54.299Z,100852.39
2019-05-06T18:11:23.246Z,100851.75
2019-05-06T18:13:52.263Z,100853.93
2019-05-06T18:16:22.259Z,100851.19
2019-05-06T18:18:52.285Z,100846.91
2019-05-06T18:21:22.986Z,100850.88
2019-05-06T18:23:52.379Z,100852.69
2019-05-06T18:26:22.949Z,100848.23
2019-05-06T18:28:52.698Z,100849.39
2019-05-06T18:31:22.198Z,100855.27
2019-05-06T18:33:52.784Z,100854.97
2019-05-06T18:36:22.678Z,100865.36
2019-05-06T18:38:52.584Z,100855.08
2019-05-06T18:41:23.563Z,100861.03
2019-05-06T18:43:53.647Z,100861.27
2019-05-06T18:46:22.979Z,100852.95
2019-05-06T18:48:52.553Z,100855.04
2019-05-06T18:51:22.407Z,100863.71
2019-05-06T18:53:52.476Z,100869.83
2019-05-06T18:56:22.446Z,100862.52
2019-05-06T18:58:53.067Z,100865.31
2019-05-06T19:01:23.190Z,100866.18
2019-05-06T19:04:12.863Z,100862.23
2019-05-06T19:06:42.447Z,100861.44
2019-05-06T19:09:32.580Z,100861.98
2019-05-06T19:12:03.539Z,100867.18
2019-05-06T19:14:32.986Z,100873.40
2019-05-06T19:17:02.800Z,100876.78
2019-05-06T19:19:34.130Z,100874.30
2019-05-06T19:22:03.207Z,100876.14
2019-05-06T19:24:33.711Z,100872.35
2019-05-06T19:27:03.135Z,100873.38
2019-05-06T19:29:32.791Z,100873.38
2019-05-06T19:32:02.971Z,100882.40
2019-05-06T19:34:34.932Z,100878.47
2019-05-06T19:37:03.144Z,100879.97
2019-05-06T19:39:33.005Z,100882.78
2019-05-06T19:42:02.881Z,100880.83
2019-05-06T19:44:32.888Z,100886.19
2019-05-06T19:47:02.520Z,100885.90
2019-05-06T19:49:32.772Z,100882.81
2019-05-06T19:52:03.126Z,100883.48
2019-05-06T19:54:33.155Z,100881.66
2019-05-06T19:57:02.646Z,100881.16
2019-05-06T19:59:33.133Z,100886.52
2019-05-06T20:02:02.416Z,100883.92
2019-05-06T20:04:33.217Z,100882.29
2019-05-06T20:07:26.909Z,100885.64
2019-05-06T20:10:12.501Z,100884.33
2019-05-06T20:12:58.306Z,100890.19
2019-05-06T20:15:42.688Z,100885.38
2019-05-06T20:18:11.417Z,100884.09
2019-05-06T20:20:42.396Z,100885.64
2019-05-06T20:23:12.589Z,100889.36
2019-05-06T20:25:42.590Z,100888.23
2019-05-06T20:28:13.117Z,100888.10
2019-05-06T20:30:42.453Z,100892.25
2019-05-06T20:33:12.486Z,100886.16
2019-05-06T20:35:43.250Z,100886.02
2019-05-06T20:38:12.492Z,100888.05
2019-05-06T20:40:43.093Z,100881.84
2019-05-06T20:43:20.064Z,100885.95
2019-05-06T20:45:42.960Z,100882.13
2019-05-06T20:48:12.908Z,100882.13
2019-05-06T20:50:42.875Z,100878.25
2019-05-06T20:53:12.263Z,100885.95
2019-05-06T20:55:43.387Z,100884.80
2019-05-06T20:58:12.320Z,100878.92
2019-05-06T21:00:42.914Z,100884.91
2019-05-06T21:03:12.450Z,100887.94
2019-05-06T21:05:43.431Z,100891.29
2019-05-06T21:08:12.978Z,100892.25
2019-05-06T21:10:42.608Z,100888.31
2019-05-06T21:13:13.270Z,100888.33
2019-05-06T21:15:43.549Z,100888.50
2019-05-06T21:18:12.448Z,100885.33
2019-05-06T21:20:43.528Z,100890.02
2019-05-06T21:23:12.154Z,100883.03
2019-05-06T21:25:43.136Z,100882.55
2019-05-06T21:28:12.259Z,100882.73
2019-05-06T21:30:42.868Z,100881.06
2019-05-06T21:33:12.507Z,100877.24
2019-05-06T21:35:42.396Z,100883.09
2019-05-06T21:38:12.105Z,100876.56
2019-05-06T21:40:43.407Z,100877.88
2019-05-06T21:43:13.077Z,100884.64
2019-05-06T21:45:42.503Z,100879.41
2019-05-06T21:48:13.600Z,100882.70
2019-05-06T21:50:42.781Z,100876.36
2019-05-06T21:53:14.339Z,100879.52
2019-05-06T21:55:42.864Z,100877.95
2019-05-06T21:58:14.018Z,100877.83
2019-05-06T22:00:49.359Z,100872.49
2019-05-06T22:03:22.957Z,100872.81
2019-05-06T22:05:54.972Z,100829.60
2019-05-06T22:08:24.064Z,100875.13
2019-05-06T22:10:53.249Z,100882.64
2019-05-06T22:13:24.878Z,100874.93
2019-05-06T22:15:54.070Z,100882.27
2019-05-06T22:18:23.026Z,100877.58
2019-05-06T22:21:26.254Z,100876.77
2019-05-06T22:24:06.256Z,100879.31
2019-05-06T22:26:36.030Z,100873.38
2019-05-06T22:29:07.345Z,100872.39
2019-05-06T22:31:38.832Z,100870.08
2019-05-06T22:34:07.740Z,100872.11
2019-05-06T22:36:36.836Z,100867.81
2019-05-06T22:39:06.789Z,100869.09
2019-05-06T22:41:37.259Z,100867.70
2019-05-06T22:44:13.839Z,100863.27
2019-05-06T22:46:36.711Z,100867.69
2019-05-06T22:49:05.476Z,100865.23
2019-05-06T22:51:34.471Z,100855.87
2019-05-06T22:54:03.615Z,100856.10
2019-05-06T22:56:32.779Z,100867.58
2019-05-06T22:59:04.482Z,100866.55
2019-05-06T23:01:47.980Z,100865.92
2019-05-06T23:04:17.562Z,100864.83
2019-05-06T23:06:46.523Z,100861.07
2019-05-06T23:09:15.413Z,100862.30
2019-05-06T23:11:44.455Z,100861.46
2019-05-06T23:14:27.652Z,100861.77
2019-05-06T23:16:44.110Z,100859.56
2019-05-06T23:19:12.972Z,100856.41
2019-05-06T23:21:43.048Z,100854.38
2019-05-06T23:24:13.111Z,100858.95
2019-05-06T23:26:42.187Z,100861.53
2019-05-06T23:29:12.968Z,100868.27
2019-05-06T23:31:42.453Z,100862.66
2019-05-06T23:34:12.537Z,100859.63
2019-05-06T23:37:28.180Z,100866.73
2019-05-06T23:40:38.883Z,100852.08
2019-05-06T23:43:43.954Z,100854.12
2019-05-06T23:46:49.376Z,100855.46
2019-05-06T23:49:54.686Z,100852.64
2019-05-06T23:52:59.458Z,100855.50
2019-05-06T23:56:04.532Z,100851.49
2019-05-06T23:58:33.578Z,100848.97
